Flight Track Log - Related Links

Times and Time Zones

All times are in EDT time to prevent confusion due to time zone crossing. See the CSN3677 flight status page for this flight to view local times or setup timezone preferences in your user account.


Time Position Orientation Groundspeed Altitude Reporting Facility
EDT Latitude Longitude Course Direction KTS MPH feet Rate Location/Type
Sat 10:11:32 PM 24.1135 114.4076 20° North  Level Estimated
Sat 10:12:32 PM 24.2083 114.4464 20° North  Level Estimated
Sat 10:13:32 PM 24.3032 114.4852 20° North  Level Estimated
Sat 10:14:32 PM 24.3980 114.5241 21° North  Level Estimated
Sat 10:15:32 PM 24.4928 114.5630 21° North  Level Estimated
Sat 10:16:32 PM 24.5875 114.6020 21° North  Level Estimated
Sat 10:17:32 PM 24.6823 114.6411 21° North  Level Estimated
Sat 10:18:32 PM 24.7771 114.6802 21° North  Level Estimated
Sat 10:19:32 PM 24.8718 114.7194 21° North  Level Estimated
Sat 10:20:32 PM 24.9666 114.7587 21° North  Level Estimated
Sat 10:21:32 PM 25.0613 114.7980 21° North  Level Estimated
Sat 10:22:32 PM 25.1560 114.8374 21° North  Level Estimated
Sat 10:23:32 PM 25.2507 114.8768 21° North  Level Estimated
Sat 10:24:32 PM 25.3454 114.9163 21° North  Level Estimated
Sat 10:25:32 PM 25.4401 114.9558 21° North  Level Estimated
Sat 10:26:32 PM 25.5348 114.9955 21° North  Level Estimated
Sat 10:27:32 PM 25.6294 115.0351 21° North  Level Estimated
Sat 10:28:32 PM 25.7241 115.0749 21° North  Level Estimated
Sat 10:29:32 PM 25.8187 115.1147 21° North  Level Estimated
Sat 10:30:32 PM 25.9133 115.1546 21° North  Level Estimated
Sat 10:31:32 PM 26.0080 115.1945 21° North  Level Estimated
Sat 10:32:32 PM 26.1026 115.2345 21° North  Level Estimated
Sat 10:33:32 PM 26.1972 115.2746 21° North  Level Estimated
Sat 10:34:32 PM 26.2918 115.3147 21° North  Level Estimated
Sat 10:35:32 PM 26.3864 115.3549 21° North  Level Estimated
Sat 10:36:32 PM 26.4809 115.3951 21° North  Level Estimated
Sat 10:37:32 PM 26.5755 115.4354 21° North  Level Estimated
Sat 10:38:32 PM 26.6700 115.4758 21° North  Level Estimated
Sat 10:39:32 PM 26.7645 115.5163 21° North  Level Estimated
Sat 10:40:32 PM 26.8591 115.5568 21° North  Level Estimated
Sat 10:41:32 PM 26.9536 115.5974 21° North  Level Estimated
Sat 10:42:32 PM 27.0481 115.6381 21° North  Level Estimated
Sat 10:43:32 PM 27.1426 115.6788 21° North  Level Estimated
Sat 10:44:32 PM 27.2370 115.7196 21° North  Level Estimated
Sat 10:45:32 PM 27.3315 115.7605 21° North  Level Estimated
Sat 10:46:32 PM 27.4259 115.8014 21° North  Level Estimated
Sat 10:47:32 PM 27.5204 115.8424 21° North  Level Estimated
Sat 10:48:32 PM 27.6148 115.8835 21° North  Level Estimated
Sat 10:49:32 PM 27.7092 115.9247 21° North  Level Estimated
Sat 10:50:32 PM 27.8036 115.9659 21° North  Level Estimated
Sat 10:51:32 PM 27.8980 116.0072 21° North  Level Estimated
Sat 10:52:32 PM 27.9924 116.0485 21° North  Level Estimated
Sat 10:53:32 PM 28.0868 116.0900 21° North  Level Estimated
Sat 10:54:32 PM 28.1811 116.1315 21° North  Level Estimated
Sat 10:55:32 PM 28.2754 116.1731 21° North  Level Estimated
Sat 10:56:32 PM 28.3698 116.2147 21° North  Level Estimated
Sat 10:57:32 PM 28.4641 116.2565 21° North  Level Estimated
Sat 10:58:32 PM 28.5584 116.2983 21° North  Level Estimated
Sat 10:59:32 PM 28.6527 116.3402 21° North  Level Estimated
Sat 11:00:32 PM 28.7470 116.3821 21° North  Level Estimated
Sat 11:01:32 PM 28.8412 116.4241 21° North  Level Estimated
Sat 11:02:32 PM 28.9355 116.4662 21° North  Level Estimated
Sat 11:03:32 PM 29.0297 116.5084 21° North  Level Estimated
Sat 11:04:32 PM 29.1239 116.5507 21° North  Level Estimated
Sat 11:05:32 PM 29.2181 116.5930 21° North  Level Estimated
Sat 11:06:32 PM 29.3123 116.6355 21° North  Level Estimated
Sat 11:07:32 PM 29.4065 116.6779 21° North  Level Estimated
Sat 11:08:32 PM 29.5007 116.7205 21° North  Level Estimated
Sat 11:09:32 PM 29.5948 116.7632 22° Northeast  Level Estimated
Sat 11:10:32 PM 29.6890 116.8059 22° Northeast  Level Estimated
Sat 11:11:32 PM 29.7831 116.8487 22° Northeast  Level Estimated
Sat 11:12:32 PM 29.8772 116.8916 22° Northeast  Level Estimated
Sat 11:13:32 PM 29.9713 116.9346 22° Northeast  Level Estimated
Sat 11:14:32 PM 30.0654 116.9776 22° Northeast  Level Estimated
Sat 11:15:32 PM 30.1595 117.0208 22° Northeast  Level Estimated
Sat 11:16:32 PM 30.2535 117.0640 22° Northeast  Level Estimated
Sat 11:17:32 PM 30.3476 117.1073 22° Northeast  Level Estimated
Sat 11:18:32 PM 30.4416 117.1507 22° Northeast  Level Estimated
Sat 11:19:32 PM 30.5356 117.1942 22° Northeast  Level Estimated
Sat 11:20:32 PM 30.6296 117.2377 22° Northeast  Level Estimated
Sat 11:21:32 PM 30.7236 117.2814 22° Northeast  Level Estimated
Sat 11:22:32 PM 30.8176 117.3251 22° Northeast  Level Estimated
Sat 11:23:32 PM 30.9116 117.3689 22° Northeast  Level Estimated
Sat 11:24:32 PM 31.0055 117.4128 22° Northeast  Level Estimated
Sat 11:25:32 PM 31.0994 117.4568 22° Northeast  Level Estimated
Sat 11:26:32 PM 31.1933 117.5008 22° Northeast  Level Estimated
Sat 11:27:32 PM 31.2872 117.5450 22° Northeast  Level Estimated
Sat 11:28:32 PM 31.3811 117.5892 22° Northeast  Level Estimated
Sat 11:29:32 PM 31.4750 117.6336 22° Northeast  Level Estimated
Sat 11:30:32 PM 31.5688 117.6780 22° Northeast  Level Estimated
Sat 11:31:32 PM 31.6627 117.7225 22° Northeast  Level Estimated
Sat 11:32:32 PM 31.7565 117.7671 22° Northeast  Level Estimated
Sat 11:33:32 PM 31.8503 117.8118 22° Northeast  Level Estimated
Sat 11:34:32 PM 31.9441 117.8566 22° Northeast  Level Estimated
Sat 11:35:32 PM 32.0379 117.9015 22° Northeast  Level Estimated
Sat 11:36:32 PM 32.1316 117.9464 22° Northeast  Level Estimated
Sat 11:37:32 PM 32.2254 117.9915 22° Northeast  Level Estimated
Sat 11:38:32 PM 32.3191 118.0367 22° Northeast  Level Estimated
Sat 11:39:32 PM 32.4128 118.0819 22° Northeast  Level Estimated
Sat 11:40:32 PM 32.5065 118.1273 22° Northeast  Level Estimated
Sat 11:41:32 PM 32.6002 118.1727 22° Northeast  Level Estimated
Sat 11:42:32 PM 32.6938 118.2182 22° Northeast  Level Estimated
Sat 11:43:32 PM 32.7875 118.2638 22° Northeast  Level Estimated
Sat 11:44:32 PM 32.8811 118.3096 22° Northeast  Level Estimated
Sat 11:45:32 PM 32.9747 118.3554 22° Northeast  Level Estimated
Sat 11:46:32 PM 33.0683 118.4013 22° Northeast  Level Estimated
Sat 11:47:32 PM 33.1619 118.4473 22° Northeast  Level Estimated
Sat 11:48:32 PM 33.2554 118.4934 22° Northeast  Level Estimated
Sat 11:49:32 PM 33.3490 118.5396 22° Northeast  Level Estimated
Sat 11:50:32 PM 33.4425 118.5860 22° Northeast  Level Estimated
Sat 11:51:32 PM 33.5360 118.6324 22° Northeast  Level Estimated
Sat 11:52:32 PM 33.6295 118.6789 23° Northeast  Level Estimated
Sat 11:53:32 PM 33.7230 118.7255 23° Northeast  Level Estimated
Sat 11:54:32 PM 33.8164 118.7722 23° Northeast  Level Estimated
Sat 11:55:32 PM 33.9099 118.8190 23° Northeast  Level Estimated
Sat 11:56:32 PM 34.0033 118.8659 23° Northeast  Level Estimated
Sat 11:57:32 PM 34.0967 118.9130 23° Northeast  Level Estimated
Sat 11:58:32 PM 34.1901 118.9601 23° Northeast  Level Estimated
Sat 11:59:32 PM 34.2835 119.0073 23° Northeast  Level Estimated
Sun 12:00:32 AM 34.3768 119.0546 23° Northeast  Level Estimated
Sun 12:01:32 AM 34.4701 119.1021 23° Northeast  Level Estimated
Sun 12:02:32 AM 34.5634 119.1496 23° Northeast  Level Estimated
Sun 12:03:32 AM 34.6567 119.1973 23° Northeast  Level Estimated
Sun 12:04:32 AM 34.7500 119.2451 23° Northeast  Level Estimated
Sun 12:05:32 AM 34.8433 119.2929 23° Northeast  Level Estimated
Sun 12:06:32 AM 34.9365 119.3409 23° Northeast  Level Estimated
Sun 12:07:32 AM 35.0297 119.3890 23° Northeast  Level Estimated
Sun 12:08:32 AM 35.1229 119.4372 23° Northeast  Level Estimated
Sun 12:09:32 AM 35.2161 119.4855 23° Northeast  Level Estimated
Sun 12:10:32 AM 35.3093 119.5339 23° Northeast  Level Estimated
Sun 12:11:32 AM 35.4024 119.5825 23° Northeast  Level Estimated
Sun 12:12:32 AM 35.4955 119.6311 23° Northeast  Level Estimated
Sun 12:13:32 AM 35.5886 119.6799 23° Northeast  Level Estimated
Sun 12:14:32 AM 35.6817 119.7287 23° Northeast  Level Estimated
Sun 12:15:32 AM 35.7748 119.7777 23° Northeast  Level Estimated
Sun 12:16:32 AM 35.8678 119.8268 23° Northeast  Level Estimated
Sun 12:17:32 AM 35.9608 119.8760 23° Northeast  Level Estimated
Sun 12:18:32 AM 36.0538 119.9254 23° Northeast  Level Estimated
Sun 12:19:32 AM 36.1468 119.9748 23° Northeast  Level Estimated
Sun 12:20:32 AM 36.2398 120.0244 23° Northeast  Level Estimated
Sun 12:21:32 AM 36.3327 120.0741 23° Northeast  Level Estimated
Sun 12:22:32 AM 36.4256 120.1238 23° Northeast  Level Estimated
Sun 12:23:32 AM 36.5185 120.1738 23° Northeast  Level Estimated
Sun 12:24:32 AM 36.6114 120.2238 23° Northeast  Level Estimated
Sun 12:25:32 AM 36.7043 120.2740 23° Northeast  Level Estimated
Sun 12:26:32 AM 36.7971 120.3242 23° Northeast  Level Estimated
Sun 12:27:32 AM 36.8899 120.3746 24° Northeast  Level Estimated
Sun 12:28:32 AM 36.9827 120.4252 24° Northeast  Level Estimated
Sun 12:29:32 AM 37.0755 120.4758 24° Northeast  Level Estimated
Sun 12:30:32 AM 37.1683 120.5266 24° Northeast  Level Estimated
Sun 12:31:32 AM 37.2610 120.5775 24° Northeast  Level Estimated
Sun 12:32:32 AM 37.3537 120.6285 24° Northeast  Level Estimated
Sun 12:33:32 AM 37.4464 120.6797 24° Northeast  Level Estimated
Sun 12:34:32 AM 37.5391 120.7309 24° Northeast  Level Estimated
Sun 12:35:32 AM 37.6317 120.7823 24° Northeast  Level Estimated
Sun 12:36:32 AM 37.7243 120.8339 24° Northeast  Level Estimated
Sun 12:37:32 AM 37.8169 120.8855 24° Northeast  Level Estimated
Sun 12:38:32 AM 37.9095 120.9373 24° Northeast  Level Estimated
Sun 12:39:32 AM 38.0020 120.9893 24° Northeast  Level Estimated
Sun 12:40:32 AM 38.0946 121.0413 24° Northeast  Level Estimated
Sun 12:41:32 AM 38.1871 121.0935 24° Northeast  Level Estimated
Sun 12:42:32 AM 38.2796 121.1458 24° Northeast  Level Estimated
Sun 12:43:32 AM 38.3720 121.1983 24° Northeast  Level Estimated
Sun 12:44:32 AM 38.4645 121.2509 24° Northeast  Level Estimated
Sun 12:45:32 AM 38.5569 121.3036 24° Northeast  Level Estimated
Sun 12:46:32 AM 38.6493 121.3564 24° Northeast  Level Estimated
Sun 12:47:32 AM 38.7416 121.4094 24° Northeast  Level Estimated
Sun 12:48:32 AM 38.8340 121.4626 24° Northeast  Level Estimated
Sun 12:49:32 AM 38.9263 121.5158 24° Northeast  Level Estimated
Sun 12:50:32 AM 39.0186 121.5692 204° Southwest  Level Estimated
Sun 12:51:32 AM 38.9263 121.5158 24° Northeast  Level Estimated
Sun 12:52:32 AM 39.0186 121.5692 204° Southwest  Level Estimated
Sun 12:53:32 AM 38.9263 121.5158 24° Northeast  Level Estimated
Sun 12:54:32 AM 39.0186 121.5692 204° Southwest  Level Estimated
Sun 12:55:32 AM 38.9263 121.5158 24° Northeast  Level Estimated
Sun 12:56:32 AM 39.0186 121.5692 204° Southwest  Level Estimated
Sun 12:57:32 AM 38.9263 121.5158 24° Northeast  Level Estimated
Sun 12:58:32 AM 39.0186 121.5692 204° Southwest  Level Estimated
Sun 12:59:32 AM 38.9263 121.5158 24° Northeast  Level Estimated
Sun 01:00:32 AM 39.0186 121.5692 204° Southwest  Level Estimated
Sun 01:01:32 AM 38.9263 121.5158 24° Northeast  Level Estimated
Sun 01:02:32 AM 39.0186 121.5692 204° Southwest  Level Estimated
Sun 01:03:32 AM 38.9263 121.5158 24° Northeast  Level Estimated
Sun 01:04:32 AM 39.0186 121.5692 204° Southwest  Level Estimated
Sun 01:05:32 AM 38.9263 121.5158 204° Southwest  Level Estimated

Login

Don't have an account? Register now (free) for customized features, flight alerts, and more!